KNJK/NJK METAR and TAF weather

Enter ICAO airport designator
Station Type Date Time Source
KNJK METAR 2019/02/22 23:56 UTC NOAA

KNJK 222356Z 36006KT 10SM FEW060 17/M08 A3001 RMK AO2 SLP179 60000 T01721083 10178 20139 53013 $


Station Type Date Time Source
KNJK Decoded METAR 2019/02/22 23:56 UTC NOAA

El Centro, Naval Air Facility, CA, United States (KNJK) 32-49-30N 115-39-38W -13M
Feb 22, 2019 - 06:56 PM EST / 2019.02.22 2356 UTC
Wind: from the N (360 degrees) at 7 MPH (6 KT):0
Visibility: 10 mile(s):0
Sky conditions: mostly clear
Temperature: 63.0 F (17.2 C)
Dew Point: 17.1 F (-8.3 C)
Relative Humidity: 16%
Pressure (altimeter): 30.01 in. Hg (1016 hPa)
Pressure tendency: 0.04 inches (1.3 hPa) higher than three hours ago
ob: KNJK 222356Z 36006KT 10SM FEW060 17/M08 A3001 RMK AO2 SLP179 60000 T01721083 10178 20139 53013
cycle: 0

Station Type Date Time Source
KNJK TAF 2019/02/22 23:51 UTC NOAA

TAF TAF KNJK 2223/2323 32010KT 9999 FEW060 QNH2997INS
TEMPO 2223/2302 32012G20KT
FM230200 26006KT 9999 FEW060 QNH3005INS
FM230700 VRB06KT 9999 SKC QNH3015INS T02/2314Z T19/2322Z FS30142


Example: see airport list